Tiempo atmosférico en la estación meteorológica de Tortosa, Tarragona (44 m.)



Fecha
DESCASC
Temp. máxima en grados centígrados (hora)
DESCASC
Temp. mínima en grados centígrados (hora)
DESCASC
Temp. media en grados centígrados
DESCASC
Racha de viento máxima en m/sg (hora)
DESCASC
Velocidad máxima media en intervalos de 10 minutos(hora)
DESCASC
Precipitaciones diarias en mm
DESCASC
Precipitaciones de 00:00 a 06:00 en mm
DESCASC
Precipitaciones de 06:00 a 12:00 en mm
DESCASC
Precipitaciones de 12:00 a 18:00 en mm
DESCASC
Precipitaciones de 18:00 a 24:00 en mm
DESCASC

Gráficas

Temp. máximas Temp. mínimas Temp. medias Precipitaciones Rachas de viento máximas Velocidades máximas media en intervalos de 10 minutos

Datos horarios

Fecha y hora oficial Temperatura (ºC) Velocidad del viento (km/h) Dirección del viento Racha (km/h) Dirección de racha Precipitación (mm) Presión (hPa) Tendencia (hPa) Humedad (%)
2020-11-26 23:00:00 16.2 10 Nordeste 21 Este 0 1010.6 -0.3 84
2020-11-26 22:00:00 16.3 7 Nordeste 18 Este 0 1010.9 0.2 84
2020-11-26 21:00:00 16.7 10 Este 26 Este 0 1010.9 0.5 84
2020-11-26 20:00:00 16.5 9 Este 21 Este 0 1010.9 -- 84
2020-11-26 19:00:00 16.1 7 Este 21 Nordeste 0 1010.7 -- 87
2020-11-26 18:00:00 16.3 5 Este 15 Sudeste 0 1010.4 -- 86
2020-11-26 17:00:00 17.1 4 Este 10 Este 0 1010.5 -- 84
2020-11-26 16:00:00 17.5 5 Sudeste 14 Sudeste 0 1010.7 -- 81
2020-11-26 15:00:00 17.9 9 Sudoeste 19 Sudoeste 0 1010.5 -- 78
2020-11-26 14:00:00 17.6 6 Sur 12 Oeste 0 1010.2 -- 78
2020-11-26 13:00:00 15.5 8 Noroeste 13 Noroeste 0 1010.8 -- 91
2020-11-26 12:00:00 14.5 0 Calma 6 Nordeste 0 1012.1 -- 90
2020-11-26 11:00:00 13.6 3 Nordeste 6 Nordeste 0 1012.3 -- 92
2020-11-26 10:00:00 11.6 4 Norte 7 Noroeste 0 1011.8 -- 98
2020-11-26 09:00:00 10.5 3 Norte 11 Noroeste 0 1011.6 -- 99
2020-11-26 08:00:00 9.5 7 Noroeste 10 Noroeste 0 1011.5 -- 98
2020-11-26 07:00:00 10.3 4 Oeste 6 Oeste 0 1011.2 -- 99
2020-11-26 06:00:00 10 0 Calma 11 Noroeste 0 1011.1 -- 98
2020-11-26 05:00:00 9.8 5 Norte 9 Norte 0 1010.9 -- 97
2020-11-26 04:00:00 10.2 5 Noroeste 7 Noroeste 0 1011.1 -- 97
2020-11-26 03:00:00 10.2 2 Noroeste 5 Noroeste 0 1011.5 -- 96
2020-11-26 02:00:00 10.1 3 Nordeste 7 Noroeste 0 1011.5 -- 96
2020-11-26 01:00:00 10.2 0 Calma 6 Norte 0 1012 -- 96
2020-11-26 00:00:00 10.1 3 Norte 8 Norte 0 1012.4 -- 96
2020-11-25 23:00:00 10 6 Norte 7 Norte 0 1012.5 -- 95
2020-11-25 22:00:00 10.5 3 Oeste 5 Norte 0 1012.5 -- 95
2020-11-25 21:00:00 11.4 2 Sudeste 8 Sur 0 1012.3 -- 91
2020-11-25 20:00:00 12.2 6 Sur 12 Sur 0 1012.3 -- 92
2020-11-25 19:00:00 12.6 7 Sur 12 Sur 0 1011.9 -- 89
2020-11-25 18:00:00 13.7 7 Sur 15 Sudeste 0 1011.4 -- 83
2020-11-25 17:00:00 15.8 8 Sudeste 24 Sudeste 0 1011 -- 72
2020-11-25 16:00:00 17.2 11 Sudeste 21 Sudeste 0 1011.1 -- 66
2020-11-25 15:00:00 18.1 10 Sudeste 19 Sudeste 0 1011.3 -- 62
2020-11-25 14:00:00 18.4 5 Sur 10 Sur 0 1011.7 -- 58
2020-11-25 13:00:00 16.8 4 Este 9 Noroeste 0 1012.4 -- 66
2020-11-25 12:00:00 14.7 5 Norte 18 Norte 0 1013.1 -- 71
2020-11-25 11:00:00 12.7 8 Norte 17 Norte 0 1013.5 -- 78
2020-11-25 10:00:00 9.3 6 Norte 14 Noroeste 0 1013.7 -- 98
2020-11-25 09:00:00 7.5 6 Norte 15 Noroeste 0 1013.6 -- 99
2020-11-25 08:00:00 6.8 9 Norte 17 Norte 0 1013.3 -- 99
2020-11-25 07:00:00 6.3 5 Norte 12 Noroeste 0 1013.3 -- 100
2020-11-25 06:00:00 5.8 4 Norte 9 Noroeste 0 1013.1 -- 99
2020-11-25 05:00:00 5.6 5 Norte 9 Norte 0 1013.3 -- 98
2020-11-25 04:00:00 5.8 5 Norte 8 Noroeste 0 1013.5 -- 97
2020-11-25 03:00:00 6.3 2 Norte 8 Norte 0 1014 -- 97
2020-11-25 02:00:00 6.7 4 Noroeste 6 Noroeste 0 1014.4 -- 97
2020-11-25 01:00:00 7.4 3 Nordeste 3 Nordeste 0 1015 -- 96
2020-11-25 00:00:00 8.5 2 Este -- -- 0 1015.3 -- 96
2020-11-24 23:00:00 9.1 3 Nordeste 4 Norte 0 1015.6 -- 96
2020-11-24 22:00:00 10.2 3 Sudoeste 6 Este 0 1015.6 -- 96
2020-11-24 21:00:00 10.8 4 Sudeste 7 Sudeste 0 1015.6 -- 94
2020-11-24 20:00:00 11.8 6 Sudeste 8 Sudeste 0 1015.8 -- 92
2020-11-24 19:00:00 12.5 5 Sudeste 9 Sudeste 0 1015.9 -- 89
2020-11-24 18:00:00 13 5 Sur 18 Sudeste 0 1015.8 -- 86
2020-11-24 17:00:00 14.3 10 Sudeste 21 Sudeste 0 1015.8 -- 81
2020-11-24 16:00:00 15.4 12 Sudeste 24 Sudeste 0 1015.8 -- 75
2020-11-24 15:00:00 17.4 10 Sudeste 21 Sudeste 0 1016.3 -- 65
2020-11-24 14:00:00 16.9 4 Sudeste 13 Sur 0 1017.2 -- 65
2020-11-24 13:00:00 15 4 Este 7 Este 0 1018.1 -- 63
2020-11-24 12:00:00 12.6 4 Norte 9 Norte 0 1019.4 -- 68
2020-11-24 11:00:00 8.5 4 Norte 10 Norte 0 1020.2 -- 82
2020-11-24 10:00:00 6.4 3 Norte 12 Norte 0 1020.4 -- 88
2020-11-24 09:00:00 4.5 4 Norte 11 Norte 0 1020.5 -- 94
2020-11-24 08:00:00 3.9 4 Norte 8 Norte 0 1020.3 -- 93
2020-11-24 07:00:00 4.2 3 Norte 10 Norte 0 1020.3 -- 93
2020-11-24 06:00:00 4.2 4 Norte 9 Norte 0 1020.3 -- 93
2020-11-24 05:00:00 4.7 6 Norte 12 Norte 0 1020.2 -- 91
2020-11-24 04:00:00 5.1 4 Norte 11 Noroeste 0 1020.5 -- 90
2020-11-24 03:00:00 5.7 8 Norte 14 Norte 0 1021 -- 90
2020-11-24 02:00:00 5.6 5 Norte 9 Norte 0 1021.3 -- 91
2020-11-24 01:00:00 5.9 5 Norte 10 Norte 0 1021.7 -- 90
2020-11-24 00:00:00 6.2 4 Noroeste 10 Norte 0 1022 -- 89
2020-11-23 23:00:00 6.6 5 Noroeste 12 Norte 0 1022.5 -- 88
2020-11-23 22:00:00 7.2 3 Norte 12 Norte 0 1022.6 -- 86
2020-11-23 21:00:00 8.1 3 Norte 12 Norte 0 1022.7 -- 83
2020-11-23 20:00:00 9.4 6 Norte 11 Norte 0 1022.5 -- 80
2020-11-23 19:00:00 11.7 0 Calma 7 Norte 0 1022.5 -- 72
2020-11-23 18:00:00 14 3 Sudeste 8 Sur 0 1022.2 -- 74
2020-11-23 17:00:00 15.8 2 Norte 8 Norte 0 1021.9 -- 51
2020-11-23 16:00:00 17.3 3 Norte 11 Norte 0 1021.8 -- 48
2020-11-23 15:00:00 17.5 5 Noroeste 11 Norte 0 1022.1 -- 46
2020-11-23 14:00:00 17.3 6 Norte 14 Noroeste 0 1022.7 -- 46
2020-11-23 13:00:00 16.8 6 Norte 19 Norte 0 1023.3 -- 49
2020-11-23 12:00:00 15 7 Norte 25 Norte 0 1024.2 -- 53
2020-11-23 11:00:00 13.2 12 Norte 28 Norte 0 1024.6 -- 59
2020-11-23 10:00:00 10.9 7 Norte 17 Norte 0 1024.6 -- 69
2020-11-23 09:00:00 7.2 6 Norte 14 Norte 0 1024.3 -- 82
2020-11-23 08:00:00 5.4 6 Norte 11 Norte 0 1024 -- 88
2020-11-23 07:00:00 5.6 5 Norte 14 Norte 0 1023.9 -- 87
2020-11-23 06:00:00 6.3 6 Norte 14 Norte 0 1023.8 -- 85
2020-11-23 05:00:00 7 5 Norte 15 Norte 0 1023.5 -- 82
2020-11-23 04:00:00 8.3 4 Norte 15 Norte 0 1023.7 -- 82
2020-11-23 03:00:00 8.2 4 Norte 11 Noroeste 0 1023.6 -- 86
2020-11-23 02:00:00 7.6 6 Norte 10 Norte 0 1023.6 -- 92
2020-11-23 01:00:00 6.8 6 Norte 10 Noroeste 0 1023.9 -- 96
2020-11-23 00:00:00 6.7 3 Norte 14 Norte 0 1023.9 -- 94
2020-11-22 23:00:00 6.9 5 Norte 9 Noroeste 0 1023.8 -- 93
2020-11-22 22:00:00 7.6 4 Norte 10 Norte 0 1023.7 -- 91
2020-11-22 21:00:00 8.5 5 Noroeste 10 Noroeste 0 1023.5 -- 87
2020-11-22 20:00:00 9.8 7 Noroeste 9 Noroeste 0 1023.2 -- 85
2020-11-22 19:00:00 12.2 3 Sur 8 Sudoeste 0 1022.8 -- 81
2020-11-22 18:00:00 13.1 4 Sur 13 Sudeste 0 1022.5 -- 76
2020-11-22 17:00:00 15.4 8 Sudeste 14 Sudeste 0 1022.2 -- 66
2020-11-22 16:00:00 17.1 8 Sudeste 14 Sudeste 0 1021.8 -- 58
2020-11-22 15:00:00 17.5 5 Sudeste 10 Sudeste 0 1021.8 -- 55
2020-11-22 14:00:00 17.6 5 Sur 13 Sur 0 1022.6 -- 53
2020-11-22 13:00:00 16.6 3 Este 10 Nordeste 0 1023.2 -- 52
2020-11-22 12:00:00 14.3 6 Norte 13 Norte 0 1024.1 -- 54
2020-11-22 11:00:00 12.5 4 Norte 15 Norte 0 1024.6 -- 60
2020-11-22 10:00:00 9.2 6 Norte 14 Norte 0 1024.8 -- 68
2020-11-22 09:00:00 5.3 5 Norte 11 Norte 0 1024.7 -- 85
2020-11-22 08:00:00 3.6 6 Norte 15 Norte 0 1024.6 -- 92
2020-11-22 07:00:00 3.6 9 Norte 17 Norte 0 1024.3 -- 92
2020-11-22 06:00:00 3.5 4 Norte 10 Norte 0 1024 -- 92
2020-11-22 05:00:00 3.8 6 Norte 14 Norte 0 1024.1 -- 91
2020-11-22 04:00:00 3.9 7 Norte 12 Norte 0 1024.3 -- 92
2020-11-22 03:00:00 3.7 6 Noroeste 10 Norte 0 1024.3 -- 91
2020-11-22 02:00:00 4.1 4 Norte 8 Norte 0 1024.5 -- 89
2020-11-22 01:00:00 4.5 3 Norte 9 Norte 0 1024.6 -- 87
2020-11-22 00:00:00 5.4 6 Noroeste 10 Noroeste 0 1024.9 -- 83
2020-11-21 23:00:00 6.2 0 Calma 5 Norte 0 1025.2 -- 81
2020-11-21 22:00:00 7.4 3 Nordeste 5 Norte 0 1025.4 -- 78
2020-11-21 21:00:00 8.2 3 Sudeste 5 Este 0 1025.3 -- 75
2020-11-21 20:00:00 9.3 3 Norte 12 Sudoeste 0 1024.9 -- 69
2020-11-21 19:00:00 11.4 9 Sudoeste 14 Sudoeste 0 1024.5 -- 60
2020-11-21 18:00:00 12.9 6 Sudoeste 16 Sudeste 0 1024.5 -- 54
2020-11-21 17:00:00 15.8 10 Sudeste 18 Sudeste 0 1024.4 -- 40
2020-11-21 16:00:00 17.8 3 Este 10 Sudeste 0 1024 -- 27
2020-11-21 15:00:00 18.2 7 Sur 13 Sur 0 1024.1 -- 24
2020-11-21 14:00:00 17.7 3 Nordeste 11 Noroeste 0 1024.2 -- 26
2020-11-21 13:00:00 16.9 5 Norte 15 Nordeste 0 1025 -- 32
2020-11-21 12:00:00 15.3 9 Norte 17 Norte 0 1025.4 -- 34
2020-11-21 11:00:00 14 9 Norte 26 Norte 0 1025.5 -- 38
2020-11-21 10:00:00 12 9 Norte 22 Norte 0 1025 -- 40
2020-11-21 09:00:00 9.3 12 Norte 23 Noroeste 0 1024.4 -- 46
2020-11-21 08:00:00 7.4 10 Norte 20 Noroeste 0 1023.9 -- 53
2020-11-21 07:00:00 7.2 10 Noroeste 16 Noroeste 0 1023.4 -- 49
2020-11-21 06:00:00 7.4 9 Norte 18 Norte 0 1022.9 -- 49
2020-11-21 05:00:00 8.5 9 Norte 19 Norte 0 1022.7 -- 45
2020-11-21 04:00:00 8.7 5 Norte 16 Norte 0 1022.6 -- 44
2020-11-21 03:00:00 9.7 7 Norte 19 Norte 0 1022.6 -- 41
2020-11-21 02:00:00 10.3 5 Norte 23 Norte 0 1022.6 -- 42
2020-11-21 01:00:00 11.2 12 Norte 27 Norte 0 1022.9 -- 39
2020-11-21 00:00:00 11.8 12 Norte 43 Noroeste 0 1023 -- 38
2020-11-20 23:00:00 13.4 16 Noroeste 41 Noroeste 0 1022.7 -- 32
2020-11-20 22:00:00 13.8 14 Oeste 40 Noroeste 0 1022.2 -- 34
2020-11-20 21:00:00 14.5 15 Noroeste 35 Noroeste 0 1021.5 -- 30
2020-11-20 20:00:00 13.9 14 Norte 36 Noroeste 0 1021.3 -- 37
2020-11-20 19:00:00 14.6 15 Noroeste 34 Noroeste 0 1021.2 -- 35
2020-11-20 18:00:00 14.7 12 Noroeste 32 Noroeste 0 1021.2 -- 41
2020-11-20 17:00:00 16.4 11 Noroeste 38 Noroeste 0 1021.5 -- 41
2020-11-20 16:00:00 17.8 16 Noroeste 38 Noroeste 0 1021.6 -- 38
2020-11-20 15:00:00 17.9 18 Noroeste 44 Noroeste 0 1021.2 -- 36
2020-11-20 14:00:00 18.3 13 Noroeste 45 Noroeste 0 1022.4 -- 39
2020-11-20 13:00:00 17.2 20 Noroeste 50 Noroeste 0 1023.4 -- 41
2020-11-20 12:00:00 16.8 16 Noroeste 38 Noroeste 0 1024.2 -- 44
2020-11-20 11:00:00 15.6 20 Noroeste 41 Noroeste 0 1024.9 -- 46
2020-11-20 10:00:00 14.5 13 Noroeste 40 Noroeste 0 1025 -- 46
2020-11-20 09:00:00 13 13 Norte 37 Noroeste 0 1024.7 -- 52
2020-11-20 08:00:00 12.2 16 Norte 40 Noroeste 0 1024.5 -- 55
2020-11-20 07:00:00 12 8 Norte 36 Noroeste 0 1023.8 -- 56
2020-11-20 06:00:00 12.7 15 Noroeste 42 Noroeste 0 1023.8 -- 51
2020-11-20 05:00:00 13 18 Noroeste 44 Noroeste 0 1023.4 -- 51
2020-11-20 04:00:00 13.3 16 Noroeste 55 Noroeste 0 1023.7 -- 51
2020-11-20 03:00:00 13.6 21 Noroeste 62 Noroeste 0 1024.2 -- 52
2020-11-20 02:00:00 14.1 33 Noroeste 78 Noroeste 0 1024.3 -- 53
2020-11-20 01:00:00 14.4 21 Noroeste 58 Noroeste 0 1024.4 -- 54
2020-11-20 00:00:00 15 14 Noroeste 52 Noroeste 0 1024.6 -- 54
2020-11-19 23:00:00 16 21 Noroeste 49 Norte 0 1024.5 -- 51
2020-11-19 22:00:00 16.6 20 Noroeste 55 Noroeste 0 1024.6 -- 52
2020-11-19 21:00:00 17.3 13 Noroeste 42 Norte 0 1024.6 -- 53
2020-11-19 20:00:00 18.2 12 Noroeste 32 Noroeste 0 1024.6 -- 54
2020-11-19 19:00:00 19.1 8 Noroeste 36 Oeste 0 1024.4 -- 56
2020-11-19 18:00:00 20.2 6 Noroeste 34 Noroeste 0 1023.9 -- 59
2020-11-19 17:00:00 21.4 17 Oeste 30 Oeste 0 1023.2 -- 54
2020-11-19 16:00:00 23.3 8 Norte 32 Oeste 0 1023.1 -- 52
2020-11-19 15:00:00 23.4 17 Oeste 34 Noroeste 0 1023.4 -- 47
2020-11-19 14:00:00 24.3 4 Oeste 21 Oeste 0 1023.7 -- 47
2020-11-19 13:00:00 22.8 7 Noroeste 26 Norte 0 1024.4 -- 52
2020-11-19 12:00:00 21.6 12 Norte 30 Nordeste 0 1025.2 -- 53
2020-11-19 11:00:00 19.8 14 Norte 31 Norte 0 1025.4 -- 58
2020-11-19 10:00:00 17.3 13 Norte 30 Norte 0 1025.1 -- 67
2020-11-19 09:00:00 13.7 12 Norte 22 Norte 0 1025.2 -- 80
2020-11-19 08:00:00 12.3 11 Noroeste 23 Noroeste 0 1024.7 -- 85
2020-11-19 07:00:00 12.3 12 Noroeste 22 Noroeste 0 1024.2 -- 87
2020-11-19 06:00:00 12.4 11 Noroeste 19 Noroeste 0 1023.7 -- 89
2020-11-19 05:00:00 12.5 11 Noroeste 21 Norte 0 1023.6 -- 91
2020-11-19 04:00:00 12.2 12 Noroeste 20 Norte 0 1023.6 -- 93
2020-11-19 03:00:00 12.7 12 Norte 19 Noroeste 0 1023.4 -- 93
2020-11-19 02:00:00 13.2 9 Norte 15 Norte 0 1023.4 -- 93
2020-11-19 01:00:00 14.1 6 Norte 11 Norte 0 1023.7 -- 93
2020-11-19 00:00:00 15.4 5 Norte 7 Norte 0 1023.6 -- 91
2020-11-18 23:00:00 16.1 0 Calma 8 Sudoeste 0 1023.5 -- 89
2020-11-18 22:00:00 16.3 6 Oeste 9 Sudoeste 0 1023.5 -- 89
2020-11-18 21:00:00 16.4 4 Sudoeste 6 Sur 0 1023.1 -- 88
2020-11-18 20:00:00 16.6 4 Sur 7 Sur 0 1022.7 -- 87
2020-11-18 19:00:00 16.7 5 Sur 10 Sur 0 1022.4 -- 86
2020-11-18 18:00:00 16.9 6 Sur 13 Sudeste 0 1021.9 -- 84
2020-11-18 17:00:00 18.8 9 Sudeste 16 Sudeste 0 1021.7 -- 75
2020-11-18 16:00:00 20.8 7 Sur 15 Sudeste 0 1021.3 -- 65
2020-11-18 15:00:00 20.9 6 Sudeste 12 Este 0 1021.3 -- 61
2020-11-18 14:00:00 20.7 5 Sudeste 15 Sudeste 0 1021.8 -- 62
2020-11-18 13:00:00 19.8 5 Sudeste 11 Sudeste 0 1022.7 -- 67
2020-11-18 12:00:00 16.3 3 Este 7 Norte 0 1023.6 -- 76
2020-11-18 11:00:00 14.3 4 Norte 10 Norte 0 1023.7 -- 80
2020-11-18 10:00:00 13.2 4 Norte 10 Norte 0 1023.5 -- 84
2020-11-18 09:00:00 12.6 3 Nordeste 7 Norte 0 1023.4 -- 88
2020-11-18 08:00:00 12 5 Norte 11 Noroeste 0 1022.8 -- 89
2020-11-18 07:00:00 12.2 4 Norte 9 Norte 0 1022.6 -- 91
2020-11-18 06:00:00 11.9 0 Calma 9 Noroeste 0 1022.5 -- 91
2020-11-18 05:00:00 11.8 5 Norte 11 Norte 0 1022.2 -- 92
2020-11-18 04:00:00 11.5 3 Norte 9 Norte 0 1022.5 -- 94
2020-11-18 03:00:00 11 0 Calma 6 Noroeste 0 1022.6 -- 95
2020-11-18 02:00:00 10.3 3 Norte 9 Norte 0 1022.8 -- 96
2020-11-18 01:00:00 9.9 4 Norte 7 Noroeste 0 1022.8 -- 94
2020-11-18 00:00:00 10.2 4 Noroeste 6 Norte 0 1022.7 -- 92
2020-11-17 23:00:00 11.1 6 Norte 10 Norte 0 1022.7 -- 92
2020-11-17 22:00:00 12.4 2 Noroeste 8 Norte 0 1022.7 -- 91
2020-11-17 21:00:00 13.1 4 Norte 6 Norte 0 1022.4 -- 90
2020-11-17 20:00:00 14.5 5 Sur 9 Sudeste 0 1022.3 -- 88
2020-11-17 19:00:00 15.1 5 Sudeste 10 Sur 0 1022 -- 85
2020-11-17 18:00:00 16.2 7 Sur 13 Sur 0 1021.6 -- 78
2020-11-17 17:00:00 19.1 7 Sudeste 13 Sur 0 1021.1 -- 67
2020-11-17 16:00:00 20.7 6 Sudeste 11 Sur 0 1021 -- 54
2020-11-17 15:00:00 21.5 6 Sur 14 Sudeste 0 1021.2 -- 50
2020-11-17 14:00:00 21.3 5 Sudeste 9 Sur 0 1021.4 -- 49
2020-11-17 13:00:00 20.7 3 Nordeste 15 Norte 0 1021.8 -- 51
2020-11-17 12:00:00 19.1 7 Norte 15 Nordeste 0 1022.4 -- 56
2020-11-17 11:00:00 17.8 8 Norte 17 Norte 0 1022.7 -- 60
2020-11-17 10:00:00 15.1 8 Norte 14 Norte 0 1022.4 -- 67
2020-11-17 09:00:00 12.2 3 Nordeste 16 Noroeste 0 1022.1 -- 79
2020-11-17 08:00:00 10.5 11 Noroeste 19 Noroeste 0 1021.1 -- 83
2020-11-17 07:00:00 10.5 5 Norte 20 Oeste 0 1020.6 -- 85
2020-11-17 06:00:00 10 9 Noroeste 14 Noroeste 0 1020.6 -- 89
2020-11-17 05:00:00 10.3 4 Norte 11 Noroeste 0 1020.3 -- 85
2020-11-17 04:00:00 10.9 5 Este 13 Noroeste 0 1020.8 -- 83
2020-11-17 03:00:00 11.3 5 Noroeste 12 Norte 0 1020.8 -- 82
2020-11-17 02:00:00 12.7 9 Norte 17 Norte 0 1021 -- 74
2020-11-17 01:00:00 12.7 6 Norte 12 Norte 0 1021.3 -- 78
2020-11-17 00:00:00 13.2 3 Sudeste 14 Noroeste 0 1021.2 -- 77
2020-11-16 23:00:00 13.6 8 Norte 17 Norte 0 1021.3 -- 74
2020-11-16 22:00:00 14 6 Norte 12 Norte 0 1020.6 -- 75
2020-11-16 21:00:00 15.1 5 Norte 14 Noroeste 0 1020.7 -- 73
2020-11-16 20:00:00 15.7 6 Norte 12 Noroeste 0 1020.1 -- 69
2020-11-16 19:00:00 16.1 8 Norte 18 Norte 0 1019.4 -- 66
2020-11-16 18:00:00 17.3 5 Norte 13 Norte 0 1019.1 -- 63
2020-11-16 17:00:00 19.6 5 Noroeste 28 Noroeste 0 1018.3 -- 54
2020-11-16 16:00:00 20.7 15 Noroeste 29 Noroeste 0 1017.6 -- 50
2020-11-16 15:00:00 21.9 7 Noroeste 23 Norte 0 1016.9 -- 45
2020-11-16 14:00:00 22.5 8 Noroeste 27 Norte 0 1017.1 -- 46
2020-11-16 13:00:00 23 9 Noroeste 23 Norte 0 1017.6 -- 43
2020-11-16 12:00:00 23 10 Norte 22 Norte 0 1017.9 -- 46
2020-11-16 11:00:00 21.7 4 Noroeste 14 Sudoeste 0 1018 -- 51
2020-11-16 10:00:00 20.8 7 Noroeste 17 Oeste 0 1017.2 -- 53
2020-11-16 09:00:00 18.1 3 Este 15 Oeste 0 1016.5 -- 69
2020-11-16 08:00:00 16.9 8 Norte 19 Norte 0 1015 -- 76
2020-11-16 07:00:00 17.6 12 Norte 33 Norte 0 1014.5 -- 75
2020-11-16 06:00:00 18.6 14 Norte 33 Norte 0 1013.7 -- 72
2020-11-16 05:00:00 18.8 10 Norte 27 Nordeste 0 1013 -- 69
2020-11-16 04:00:00 18.4 11 Norte 22 Norte 0 1012.8 -- 71
2020-11-16 03:00:00 17.7 7 Norte 19 Norte 0 1013 -- 75
2020-11-16 02:00:00 16.3 4 Nordeste 17 Oeste 0 1012.9 -- 86
2020-11-16 01:00:00 15.7 3 Nordeste 13 Sudoeste 0 1013.6 -- 90
2020-11-16 00:00:00 15.5 7 Norte 12 Norte 0 1013.1 -- 92
2020-11-15 23:00:00 15.7 4 Sur 14 Oeste 0 1013.5 -- 91
2020-11-15 22:00:00 15.9 4 Nordeste 12 Oeste 0 1013.4 -- 90
2020-11-15 21:00:00 16.2 5 Noroeste 9 Norte 0 1013.2 -- 90
2020-11-15 20:00:00 16.7 5 Noroeste 13 Sudoeste 0 1013 -- 89
2020-11-15 19:00:00 17.7 4 Noroeste 9 Oeste 0 1012.9 -- 85
2020-11-15 18:00:00 19.1 5 Sudoeste 8 Sudoeste 0 1013 -- 77
2020-11-15 17:00:00 21.1 4 Sur 11 Sur 0 1012.8 -- 66
2020-11-15 16:00:00 22.9 6 Sudeste 11 Sudeste 0 1012.7 -- 60
2020-11-15 15:00:00 23.3 6 Sur 14 Sur 0 1012.8 -- 60
2020-11-15 14:00:00 23.3 8 Sudeste 15 Sur 0 1013.1 -- 61
2020-11-15 13:00:00 22.6 5 Sur 10 Sur 0 1013.9 -- 58
2020-11-15 12:00:00 20.5 4 Este 10 Noroeste 0 1014.4 -- 68
2020-11-15 11:00:00 17.2 5 Norte 12 Norte 0 1014.8 -- 85
2020-11-15 10:00:00 14.6 4 Nordeste 10 Norte 0 1014.9 -- 97
2020-11-15 09:00:00 12.7 3 Sudeste 7 Noroeste 0 1015.1 -- 99
2020-11-15 08:00:00 12.8 6 Noroeste 13 Norte 0 1014.7 -- 99
2020-11-15 07:00:00 12.6 5 Norte 13 Norte 0 1014.2 -- 99
2020-11-15 06:00:00 11.9 4 Noroeste 8 Norte 0 1014.3 -- 98
2020-11-15 05:00:00 12.5 7 Norte 12 Norte 0 1014 -- 98
2020-11-15 04:00:00 13 4 Noroeste 8 Norte 0 1014.3 -- 97
2020-11-15 03:00:00 13.7 6 Noroeste 9 Noroeste 0 1014.6 -- 97
2020-11-15 02:00:00 14.3 3 Nordeste 6 Nordeste 0 1014.9 -- 97
2020-11-15 01:00:00 14.9 0 Calma 3 Norte 0 1015.3 -- 96
2020-11-15 00:00:00 15.2 2 Nordeste 7 Norte 0 1015.5 -- 96
2020-11-14 23:00:00 15.3 6 Noroeste 10 Norte 0 1015.8 -- 95
2020-11-14 22:00:00 15.5 4 Norte 6 Norte 0 1015.9 -- 95
2020-11-14 21:00:00 15.8 3 Norte 4 Norte 0 1015.6 -- 93
2020-11-14 20:00:00 16.1 5 Sudeste 8 Sudeste 0 1015.6 -- 91
2020-11-14 19:00:00 16.5 5 Sur 12 Sur 0 1015.4 -- 90
2020-11-14 18:00:00 17 7 Sudeste 14 Sudeste 0 1015.1 -- 89
2020-11-14 17:00:00 17.8 6 Sudeste 15 Sudeste 0 1015.1 -- 83
2020-11-14 16:00:00 18.7 8 Sudeste 15 Sudeste 0 1015 -- 78
2020-11-14 15:00:00 19.8 6 Sudeste 12 Sur 0 1015 -- 73
2020-11-14 14:00:00 19.9 4 Sudeste 10 Sudeste 0 1015.4 -- 71
2020-11-14 13:00:00 19 4 Sudeste 9 Este 0 1016.2 -- 72
2020-11-14 12:00:00 17.9 3 Este 8 Sudoeste 0 1017.2 -- 75
2020-11-14 11:00:00 17 5 Norte 13 Noroeste 0 1017.3 -- 78
2020-11-14 10:00:00 14.5 6 Norte 15 Norte 0 1017.3 -- 89
2020-11-14 09:00:00 13.4 4 Norte 11 Noroeste 0 1017 -- 95
2020-11-14 08:00:00 12.5 5 Norte 14 Norte 0 1016.6 -- 96
2020-11-14 07:00:00 12.7 5 Norte 11 Norte 0 1016.3 -- 98
2020-11-14 06:00:00 12.5 4 Norte 9 Norte 0 1016.2 -- 97
2020-11-14 05:00:00 12.8 4 Norte 9 Norte 0 1016 -- 96
2020-11-14 04:00:00 13 3 Norte 9 Norte 0 1016.3 -- 97
2020-11-14 03:00:00 12.6 3 Norte 8 Noroeste 0 1016.7 -- 97
2020-11-14 02:00:00 12.8 4 Noroeste 9 Noroeste 0 1016.9 -- 96
2020-11-14 01:00:00 13.3 3 Norte 6 Noroeste 0 1017.4 -- 94
2020-11-14 00:00:00 13.7 4 Noroeste 5 Noroeste 0 1017.6 -- 93
2020-11-13 23:00:00 14 4 Norte 6 Norte 0 1017.5 -- 94
2020-11-13 22:00:00 14.3 2 Norte 6 Norte 0 1017.3 -- 92
2020-11-13 21:00:00 15 4 Noroeste 8 Noroeste 0 1017.2 -- 89
2020-11-13 20:00:00 15.2 5 Norte 7 Norte 0 1017 -- 88
2020-11-13 19:00:00 15.6 4 Norte 5 Norte 0 1016.6 -- 87
2020-11-13 18:00:00 16.5 0 Calma 5 Norte 0 1016.1 -- 83
2020-11-13 17:00:00 18.1 4 Sudeste 11 Sur 0 1015.8 -- 79
2020-11-13 16:00:00 19.3 3 Sudeste 6 Sur 0 1015.6 -- 73
2020-11-13 15:00:00 19.6 3 Sudeste 8 Sur 0 1015.8 -- 70
2020-11-13 14:00:00 19.3 4 Sur 10 Norte 0 1016.1 -- 69
2020-11-13 13:00:00 18.7 7 Norte 12 Norte 0 1016.7 -- 71
2020-11-13 12:00:00 17.6 4 Norte 13 Norte 0 1017.4 -- 75
2020-11-13 11:00:00 15.1 6 Norte 14 Noroeste 0 1017.8 -- 84
2020-11-13 10:00:00 13.8 8 Norte 18 Norte 0 1017.8 -- 88
2020-11-13 09:00:00 12.2 5 Norte 13 Norte 0 1017.5 -- 96
2020-11-13 08:00:00 10.9 9 Norte 15 Norte 0 1017 -- 99
2020-11-13 07:00:00 10.7 5 Norte 9 Noroeste 0 1016.8 -- 96
2020-11-13 06:00:00 11 3 Norte 10 Noroeste 0 1016.6 -- 95
2020-11-13 05:00:00 11.3 5 Norte 11 Norte 0 1016.8 -- 94
2020-11-13 04:00:00 11.6 6 Norte 13 Norte 0 1017 -- 94
2020-11-13 03:00:00 11.5 3 Norte 9 Noroeste 0 1017.1 -- 95
2020-11-13 02:00:00 11.7 4 Norte 6 Norte 0 1017.4 -- 95
2020-11-13 01:00:00 11.7 2 Norte 6 Noroeste 0 1018 -- 95
2020-11-13 00:00:00 11.4 3 Norte 6 Norte 0 1018.1 -- 94
2020-11-12 23:00:00 11.5 5 Norte 9 Norte 0 1018.2 -- 93
2020-11-12 22:00:00 12.1 6 Norte 9 Norte 0 1018.1 -- 92
2020-11-12 21:00:00 12.7 3 Norte 10 Norte 0 1017.8 -- 89
2020-11-12 20:00:00 13.1 4 Norte 10 Norte 0 1017.8 -- 88
2020-11-12 19:00:00 14 6 Norte 13 Norte 0 1017.7 -- 85
2020-11-12 18:00:00 14.9 5 Norte 11 Norte 0 1017.5 -- 82
2020-11-12 17:00:00 16.7 4 Norte 8 Norte 0 1017.3 -- 76
2020-11-12 16:00:00 18.2 4 Norte 7 Norte 0 1017.3 -- 70
2020-11-12 15:00:00 18.7 2 Este 7 Nordeste 0 1017.3 -- 63
2020-11-12 14:00:00 18.6 3 Norte 10 Norte 0 1017.8 -- 66
2020-11-12 13:00:00 18.2 6 Norte 17 Norte 0 1018.4 -- 64
2020-11-12 12:00:00 16.6 6 Norte 17 Norte 0 1019.4 -- 69
2020-11-12 11:00:00 16 7 Norte 15 Norte 0 1019.4 -- 73
2020-11-12 10:00:00 12.4 7 Norte 18 Norte 0 1019.4 -- 86
2020-11-12 09:00:00 10.9 9 Norte 19 Norte 0 1019.3 -- 94
2020-11-12 08:00:00 10.1 7 Norte 18 Noroeste 0 1018.6 -- 96
2020-11-12 07:00:00 10 10 Norte 19 Noroeste 0 1018.3 -- 98
2020-11-12 06:00:00 10 5 Norte 14 Noroeste 0 1017.9 -- 97
2020-11-12 05:00:00 10.4 6 Norte 17 Norte 0 1018 -- 97
2020-11-12 04:00:00 10.5 5 Norte 10 Norte 0 1018.1 -- 98
2020-11-12 03:00:00 10.8 5 Norte 11 Noroeste 0 1018.4 -- 97
2020-11-12 02:00:00 11.1 4 Norte 12 Noroeste 0 1018.7 -- 97
2020-11-12 01:00:00 11.4 5 Norte 11 Noroeste 0 1019.1 -- 96
2020-11-12 00:00:00 11.9 6 Norte 9 Noroeste 0 1018.8 -- 95
2020-11-11 23:00:00 12.2 7 Noroeste 9 Noroeste 0 1018.9 -- 94
2020-11-11 22:00:00 13.1 0 Calma 13 Sudeste 0 1018.9 -- 92
2020-11-11 21:00:00 13.8 6 Sudeste 9 Sudeste 0 1018.8 -- 90
2020-11-11 20:00:00 14.7 3 Sudeste 11 Sudeste 0 1019.1 -- 88
2020-11-11 19:00:00 15.6 6 Sudeste 13 Sur 0 1018.7 -- 85
2020-11-11 18:00:00 16.8 6 Sudeste 12 Sudeste 0 1018.3 -- 83
2020-11-11 17:00:00 18.1 5 Sur 16 Este 0 1018.2 -- 77
2020-11-11 16:00:00 18.6 7 Sudeste 18 Este 0 1018.2 -- 74
2020-11-11 15:00:00 20.2 11 Sudeste 19 Sur 0 1018.3 -- 65
2020-11-11 14:00:00 21.2 6 Sudeste 14 Sudeste 0 1018.8 -- 59
2020-11-11 13:00:00 19.9 4 Este 11 Norte 0 1019.5 -- 56
2020-11-11 12:00:00 18.7 5 Norte 14 Nordeste 0 1020.7 -- 64
2020-11-11 11:00:00 16.3 6 Norte 18 Norte 0 1021.2 -- 72
2020-11-11 10:00:00 13.6 5 Norte 15 Norte 0 1021.6 -- 82
2020-11-11 09:00:00 10.8 7 Norte 15 Norte 0 1021.8 -- 96
2020-11-11 08:00:00 8.4 4 Norte 13 Norte 0 1021.6 -- 97
2020-11-11 07:00:00 9 6 Norte 9 Noroeste 0 1021.5 -- 99
2020-11-11 06:00:00 8.9 4 Norte 9 Norte 0 1021.4 -- 97
2020-11-11 05:00:00 9.4 6 Norte 13 Norte 0 1021.7 -- 96
2020-11-11 04:00:00 9.7 5 Norte 13 Norte 0 1021.9 -- 96
2020-11-11 03:00:00 9.9 5 Norte 12 Norte 0 1022.2 -- 96
2020-11-11 02:00:00 10.1 6 Norte 11 Norte 0 1022.7 -- 96
2020-11-11 01:00:00 10.4 3 Noroeste 10 Norte 0 1022.8 -- 95
2020-11-11 00:00:00 11.1 6 Norte 10 Norte 0 1022.7 -- 94
2020-11-10 23:00:00 11.7 5 Norte 12 Norte 0 1022.5 -- 92
2020-11-10 22:00:00 12.5 8 Norte 13 Noroeste 0 1022.5 -- 90
2020-11-10 21:00:00 13.4 8 Noroeste 9 Noroeste 0 1022.5 -- 89
2020-11-10 20:00:00 14.7 4 Sudeste 8 Sur 0 1021.8 -- 86
2020-11-10 19:00:00 15.8 5 Sur 13 Sur 0 1021.6 -- 80
2020-11-10 18:00:00 17 6 Sur 13 Sur 0 1021.2 -- 76
2020-11-10 17:00:00 19.1 6 Sur 16 Sudeste 0 1020.6 -- 67
2020-11-10 16:00:00 21.9 11 Oeste 27 Noroeste 0 1020 -- 43
2020-11-10 15:00:00 22.1 10 Noroeste 24 Noroeste 0 1019.8 -- 44
2020-11-10 14:00:00 22.4 10 Noroeste 24 Noroeste 0 1019.9 -- 44
2020-11-10 13:00:00 22.1 10 Noroeste 27 Noroeste 0 1020.4 -- 45
2020-11-10 12:00:00 21.4 10 Noroeste 29 Noroeste 0 1020.9 -- 49
2020-11-10 11:00:00 20.3 9 Noroeste 23 Norte 0 1021.3 -- 50
2020-11-10 10:00:00 18.1 10 Norte 25 Norte 0 1020.9 -- 63
2020-11-10 09:00:00 15.3 11 Norte 23 Norte 0 1020.5 -- 71
2020-11-10 08:00:00 13.9 10 Norte 21 Norte 0 1019.7 -- 77
2020-11-10 07:00:00 13.4 9 Norte 19 Norte 0 1019.3 -- 79
2020-11-10 06:00:00 12.8 8 Norte 16 Noroeste 0 1019 -- 84
2020-11-10 05:00:00 13.5 9 Noroeste 17 Norte 0 1018.7 -- 81
2020-11-10 04:00:00 13.9 7 Norte 18 Norte 0 1018.5 -- 81
2020-11-10 03:00:00 14.3 10 Norte 18 Norte 0 1018.4 -- 80
2020-11-10 02:00:00 13.7 8 Norte 16 Norte 0 1018.4 -- 83
2020-11-10 01:00:00 13.5 8 Norte 15 Norte 0 1018.3 -- 86
2020-11-10 00:00:00 13.6 10 Norte 17 Norte 0 1018.4 -- 88
2020-11-09 23:00:00 13.8 3 Norte 14 Noroeste 0 1018.4 -- 88
2020-11-09 22:00:00 14 6 Norte 10 Noroeste 0 1018.2 -- 89
2020-11-09 21:00:00 14 6 Norte 12 Norte 0 1017.9 -- 90
2020-11-09 20:00:00 14.4 7 Oeste 11 Oeste 0 1017.8 -- 88
2020-11-09 19:00:00 16.2 4 Norte 9 Noroeste 0 1017.5 -- 81
2020-11-09 18:00:00 16.6 3 Noroeste 7 Sudeste 0 1017 -- 76
2020-11-09 17:00:00 18 4 Sudeste 13 Sudeste 0 1016.7 -- 68
2020-11-09 16:00:00 20.1 8 Sudeste 12 Sudeste 0 1016.4 -- 60
2020-11-09 15:00:00 21.8 5 Sur 14 Sudeste 0 1016.2 -- 57
2020-11-09 14:00:00 21.6 4 Sur 9 Sudoeste 0 1016.3 -- 55
2020-11-09 13:00:00 20.4 4 Sur 10 Norte 0 1016.8 -- 58
2020-11-09 12:00:00 17.9 6 Norte 16 Norte 0 1017.6 -- 65
2020-11-09 11:00:00 16.2 5 Norte 15 Norte 0 1017.8 -- 77
2020-11-09 10:00:00 13.3 4 Norte 13 Norte 0 1017.9 -- 90
2020-11-09 09:00:00 10.7 4 Norte 11 Norte 0 1017.9 -- 98
2020-11-09 08:00:00 9.2 6 Norte 13 Norte 0 1017.2 -- 98
2020-11-09 07:00:00 9.1 5 Noroeste 10 Norte 0 1016.8 -- 98
2020-11-09 06:00:00 9.3 5 Norte 12 Noroeste 0 1016.7 -- 98
2020-11-09 05:00:00 9.4 4 Noroeste 10 Norte 0 1016.5 -- 97
2020-11-09 04:00:00 9.6 5 Norte 9 Noroeste 0 1016.4 -- 97
2020-11-09 03:00:00 9.8 7 Norte 13 Norte 0 1016.8 -- 97
2020-11-09 02:00:00 9.9 4 Norte 8 Noroeste 0 1016.9 -- 96
2020-11-09 01:00:00 10.4 5 Norte 10 Norte 0 1017.3 -- 95
2020-11-09 00:00:00 11.1 5 Norte 6 Norte 0 1017.3 -- 95
2020-11-08 23:00:00 11.6 2 Norte 11 Noroeste 0 1017.4 -- 93
2020-11-08 22:00:00 12.5 3 Norte 8 Noroeste 0 1017.4 -- 91
2020-11-08 21:00:00 13.7 2 Noroeste 7 Noroeste 0 1017.4 -- 89
2020-11-08 20:00:00 14.7 5 Oeste 9 Sur 0 1017.2 -- 84
2020-11-08 19:00:00 15.6 8 Sudoeste 11 Sudoeste 0 1016.9 -- 76
2020-11-08 18:00:00 17.3 6 Sur 13 Sudeste 0 1016.5 -- 66
2020-11-08 17:00:00 19.5 8 Sudeste 20 Sudeste 0 1016.5 -- 59
2020-11-08 16:00:00 21.3 11 Sudeste 22 Sudeste 0 1016.6 -- 55
2020-11-08 15:00:00 22 10 Sudeste 19 Sudeste 0 1016.6 -- 51
2020-11-08 14:00:00 21.5 6 Sudeste 13 Este 0 1017.1 -- 54
2020-11-08 13:00:00 20.9 5 Este 9 Este 0 1017.9 -- 53
2020-11-08 12:00:00 19.6 3 Norte 10 Norte 0 1018.8 -- 65
2020-11-08 11:00:00 16.7 3 Nordeste 8 Nordeste 0 1019.1 -- 84
2020-11-08 10:00:00 15.2 3 Norte 5 Sudeste 0 1019.4 -- 88
2020-11-08 09:00:00 12.4 4 Norte 9 Norte 0 1019 -- 100
2020-11-08 08:00:00 10.3 4 Nordeste 12 Norte 0 1018.5 -- 100
2020-11-08 07:00:00 10.2 4 Norte 15 Norte 0 1018.2 -- 99
2020-11-08 06:00:00 10.7 5 Norte 10 Norte 0 1018.2 -- 99
2020-11-08 05:00:00 10.6 3 Nordeste 5 Oeste 0 1018.2 -- 98
2020-11-08 04:00:00 10.8 2 Sudoeste 7 Noroeste 0 1018.1 -- 98
2020-11-08 03:00:00 11.4 3 Norte 12 Norte 0 1018.2 -- 98
2020-11-08 02:00:00 11.8 4 Norte 12 Norte 0 1018.3 -- 98
2020-11-08 01:00:00 12.3 3 Norte 13 Norte 0 1018.5 -- 98
2020-11-08 00:00:00 12.8 6 Noroeste 9 Noroeste 0 1018.3 -- 97
2020-11-07 23:00:00 13.4 3 Noroeste 11 Noroeste 0 1018.2 -- 96
2020-11-07 22:00:00 14.3 3 Norte 9 Noroeste 0 1017.8 -- 94
2020-11-07 21:00:00 15 8 Noroeste 10 Noroeste 0 1017.2 -- 94
2020-11-07 20:00:00 16.1 0 Calma 9 Sudoeste 0 1016.6 -- 90
2020-11-07 19:00:00 16.7 3 Sur 13 Sudeste 0 1016.1 -- 86
2020-11-07 18:00:00 17.4 6 Sudeste 17 Sudeste 0 1015 -- 84
2020-11-07 17:00:00 18.3 9 Sudeste 23 Sudeste 0 1014.5 -- 82
2020-11-07 16:00:00 19.3 14 Sur 25 Sudeste 0 1014.5 -- 79
2020-11-07 15:00:00 20.3 10 Sudeste 24 Sudeste 0 1014.3 -- 72
2020-11-07 14:00:00 19.5 15 Sur 31 Sur 0 1014.6 -- 77
2020-11-07 13:00:00 17.4 6 Sudeste 11 Este 0 1014.8 -- 91
2020-11-07 12:00:00 16.4 0 Calma 17 Noroeste 0 1015 -- 96
2020-11-07 11:00:00 15 13 Noroeste 24 Norte 1.4 1013.7 -- 96
2020-11-07 10:00:00 16.8 8 Norte 23 Sudeste 5 1013.3 -- 97
2020-11-07 09:00:00 17.4 13 Sur 58 Este 1 1013.3 -- 94
2020-11-07 08:00:00 18.5 31 Este 62 Sudeste 0.6 1011.8 -- 93
2020-11-07 07:00:00 18.6 24 Este 63 Este 0.2 1011.5 -- 91
2020-11-07 06:00:00 18.7 29 Este 60 Este 0 1011.7 -- 88
2020-11-07 05:00:00 18.7 18 Este 59 Este 0 1012.8 -- 86
2020-11-07 04:00:00 18.5 19 Este 48 Este 0 1013.2 -- 87
2020-11-07 03:00:00 18.6 10 Este 45 Este 0 1014.2 -- 87
2020-11-07 02:00:00 18.7 13 Este 37 Este 0 1014.5 -- 86
2020-11-07 01:00:00 18.7 13 Este 41 Este 0 1015.4 -- 86
2020-11-07 00:00:00 18.7 10 Este 37 Este 0 1015.6 -- 86
2020-11-06 23:00:00 18.7 18 Este 41 Este 0 1016.4 -- 86
2020-11-06 22:00:00 18.9 18 Este 45 Este 0 1016.5 -- 86
2020-11-06 21:00:00 19 16 Este 37 Este 0 1016.8 -- 87
2020-11-06 20:00:00 18.8 18 Este 44 Este 0 1017.1 -- 88
2020-11-06 19:00:00 18.7 17 Este 38 Este 0 1016.9 -- 87
2020-11-06 18:00:00 18.5 16 Este 43 Este 0 1016.7 -- 87
2020-11-06 17:00:00 18.5 16 Este 36 Este 0 1016.9 -- 87
2020-11-06 16:00:00 18.5 14 Este 36 Este 0 1017.4 -- 87
2020-11-06 15:00:00 18.7 13 Este 38 Este 0 1017.6 -- 86
2020-11-06 14:00:00 18.6 13 Este 45 Este 0 1018.3 -- 85
2020-11-06 13:00:00 19.1 17 Este 47 Este 0 1018.6 -- 82
2020-11-06 12:00:00 18.6 13 Este 40 Este 0 1019.5 -- 84
2020-11-06 11:00:00 18.4 14 Este 39 Este 0 1020 0.7 84
2020-11-06 10:00:00 17.6 13 Este 44 Este 0 1020.1 -- 87
2020-11-06 09:00:00 17 9 Este 28 Nordeste 0 1019.8 -- 89
2020-11-06 08:00:00 16.9 8 Sudeste 30 Norte 0 1019.3 -- 89
2020-11-06 07:00:00 16.6 6 Nordeste 43 Nordeste 0 1018.9 -- 93
2020-11-06 06:00:00 16.7 15 Este 45 Este 0.2 1018.6 -- 95
2020-11-06 05:00:00 16.6 12 Este 33 Este 1 1018.6 -- 99
2020-11-06 04:00:00 16.5 5 Sur 22 Sudoeste 6.8 1018.9 -- 99
2020-11-06 03:00:00 16.4 8 Norte 27 Nordeste 63 1019.1 -- 98
2020-11-06 02:00:00 16.7 11 Este 65 Este 6.4 1018.8 -- 97
2020-11-06 01:00:00 16.8 31 Este 67 Este 3.2 1017.7 -- 95
2020-11-06 00:00:00 16.3 23 Este 50 Este 5.6 1018.3 -- 97
2020-11-05 23:00:00 15.6 12 Nordeste 37 Nordeste 6 1018.5 -- 97
2020-11-05 22:00:00 15.9 16 Nordeste 39 Este 3.4 1018.9 -- 96
2020-11-05 21:00:00 16 9 Este 49 Nordeste 0.6 1018.8 -- 95
2020-11-05 20:00:00 16.1 16 Este 41 Nordeste 0.2 1019.1 -- 94
2020-11-05 19:00:00 14.6 7 Nordeste 19 Nordeste 0 1019.2 -- 100
2020-11-05 18:00:00 13.1 3 Nordeste 15 Noroeste 0.2 1019.3 -- 99
2020-11-05 17:00:00 12.6 6 Noroeste 9 Noroeste 0.6 1019.8 -- 98
2020-11-05 16:00:00 12.5 4 Norte 12 Este 0.6 1020.2 -- 98
2020-11-05 15:00:00 12.5 3 Norte 7 Norte 0.6 1020.2 -- 97
2020-11-05 14:00:00 12.4 3 Norte 11 Noroeste 0 1020.7 -- 93
2020-11-05 13:00:00 12.1 4 Norte 11 Norte 0 1021.5 -- 92
2020-11-05 12:00:00 11.9 4 Norte 11 Noroeste 0 1022.1 -- 90
2020-11-05 11:00:00 11.6 4 Norte 15 Norte 0 1022.6 -- 87
2020-11-05 10:00:00 11 5 Norte 14 Norte 0 1022.7 -- 89
2020-11-05 09:00:00 10.4 7 Norte 22 Norte 0 1022.1 -- 90
2020-11-05 08:00:00 9.8 8 Norte 23 Norte 0 1021.7 -- 92
2020-11-05 07:00:00 9.8 9 Norte 19 Norte 0 1021.8 -- 92
2020-11-05 06:00:00 9.9 9 Norte 21 Norte 0 1021.5 -- 91
2020-11-05 05:00:00 9.8 11 Norte 24 Norte 0 1021.5 -- 91
2020-11-05 04:00:00 10.1 10 Norte 27 Norte 0 1021.4 -- 90
2020-11-05 03:00:00 10.4 9 Norte 23 Norte 0 1021.6 -- 89
2020-11-05 02:00:00 10.6 10 Norte 21 Noroeste 0 1021.4 -- 89
2020-11-05 01:00:00 10.8 6 Norte 20 Noroeste 0 1021.4 -- 89
2020-11-05 00:00:00 10.8 9 Norte 17 Norte 0.2 1021 -- 89
2020-11-04 23:00:00 10.9 8 Norte 24 Norte 0 1020.9 -- 86
2020-11-04 22:00:00 10.7 10 Norte 30 Norte 0 1020.3 -- 87
2020-11-04 21:00:00 10.7 12 Norte 32 Noroeste 0 1019.6 -- 86
2020-11-04 20:00:00 10.4 10 Norte 26 Noroeste 0 1019 -- 88
2020-11-04 19:00:00 10.4 12 Norte 26 Norte 0 1018.4 -- 89
2020-11-04 18:00:00 10.1 11 Norte 29 Norte 0 1018.1 -- 91
2020-11-04 17:00:00 10.2 12 Norte 28 Norte 0 1017.9 -- 92
2020-11-04 16:00:00 10.2 13 Norte 28 Norte 0 1017.9 -- 95
2020-11-04 15:00:00 9.7 9 Norte 27 Nordeste 0.2 1017.8 -- 98
2020-11-04 14:00:00 9.6 11 Norte 28 Norte 0 1018.1 -- 98
2020-11-04 13:00:00 9.4 14 Norte 33 Norte 0.6 1018.2 -- 98
2020-11-04 12:00:00 9.7 11 Norte 26 Norte 1.2 1019.2 -- 98
2020-11-04 11:00:00 9.6 11 Norte 28 Norte 2.4 1019.6 1.4 98
2020-11-04 10:00:00 9.8 8 Norte 20 Norte 1.6 1019.5 -- 98
2020-11-04 09:00:00 9.6 10 Norte 26 Norte 1 1019.2 -- 97
2020-11-04 08:00:00 9.5 11 Norte 26 Norte 2.4 1018.2 -- 97
2020-11-04 07:00:00 9.7 10 Norte 27 Nordeste 2 1018.2 -- 96
2020-11-04 06:00:00 10.1 11 Norte 25 Nordeste 3 1018.7 -- 95
2020-11-04 05:00:00 10.8 14 Norte 24 Nordeste 0 1019 -- 87
2020-11-04 04:00:00 11 10 Norte 26 Nordeste 0.4 1019.6 -- 89
2020-11-04 03:00:00 12.8 10 Norte 26 Norte 0 1019.8 -- 74
2020-11-04 02:00:00 14.5 10 Norte 28 Noroeste 0 1019.9 -- 65
2020-11-04 01:00:00 15.3 12 Norte 35 Noroeste 0 1019.9 -- 60
2020-11-04 00:00:00 15.5 16 Norte 41 Norte 0 1020.3 -- 59
2020-11-03 23:00:00 15.7 17 Norte 40 Noroeste 0 1020.7 -- 59
2020-11-03 22:00:00 16.1 20 Noroeste 38 Noroeste 0 1020.9 -- 59
2020-11-03 21:00:00 16.1 9 Norte 23 Norte 0 1021.3 -- 59
2020-11-03 20:00:00 16.1 13 Norte 32 Norte 0 1021.2 -- 59
2020-11-03 19:00:00 16.5 14 Norte 31 Noroeste 0 1021.3 -- 60
2020-11-03 18:00:00 16.8 8 Norte 28 Noroeste 0 1020.6 -- 60
2020-11-03 17:00:00 18.5 12 Noroeste 29 Norte 0 1020.1 -- 55
2020-11-03 16:00:00 20.8 9 Noroeste 30 Noroeste 0 1019.8 -- 52
2020-11-03 15:00:00 21.8 13 Noroeste 32 Oeste 0 1019.6 -- 48
2020-11-03 14:00:00 22.3 16 Oeste 35 Oeste 0 1019.7 -- 48
2020-11-03 13:00:00 23.1 15 Oeste 27 Oeste 0 1020.1 -- 47
2020-11-03 12:00:00 21.3 3 Noroeste 15 Nordeste 0 1020.6 -- 56
2020-11-03 11:00:00 21.1 3 Norte 10 Este 0 1020.6 -- 60
2020-11-03 10:00:00 17.2 5 Norte 10 Norte 0 1020.5 -- 77
2020-11-03 09:00:00 16.5 4 Norte 15 Noroeste 0 1020.2 -- 88
2020-11-03 08:00:00 14.2 9 Norte 15 Norte 0 1019.5 -- 95
2020-11-03 07:00:00 14.8 7 Norte 13 Norte 0 1019 -- 96
2020-11-03 06:00:00 14.9 2 Norte 9 Norte 0 1018.7 -- 96
2020-11-03 05:00:00 14.9 5 Norte 9 Norte 0 1018.7 -- 97
2020-11-03 04:00:00 14.8 4 Norte 10 Norte 0 1018.6 -- 98
2020-11-03 03:00:00 14.5 5 Norte 9 Norte 0 1018.6 -- 98
2020-11-03 02:00:00 14.5 4 Norte 8 Norte 0 1018.5 -- 97
2020-11-03 01:00:00 14.1 5 Norte 9 Noroeste 0 1018.4 -- 97
2020-11-03 00:00:00 14.1 6 Norte 9 Norte 0 1018.4 -- 96
2020-11-02 23:00:00 14.9 0 Calma 4 Noroeste 0 1018.2 -- 96
2020-11-02 22:00:00 15.2 0 Calma 6 Sudoeste 0 1017.9 -- 93
2020-11-02 21:00:00 16.1 5 Sudoeste 6 Oeste 0 1017.7 -- 93
2020-11-02 20:00:00 16.8 3 Sur 11 Sur 0 1017.3 -- 90
2020-11-02 19:00:00 17.7 8 Sur 17 Sur 0 1016.8 -- 87
2020-11-02 18:00:00 19.3 10 Sur 19 Sudeste 0 1016.2 -- 79
2020-11-02 17:00:00 22.4 10 Sur 20 Sur 0 1015.9 -- 66
2020-11-02 16:00:00 24.2 10 Sur 21 Sur 0 1015.8 -- 57
2020-11-02 15:00:00 25.1 11 Sur 17 Sur 0 1015.8 -- 51
2020-11-02 14:00:00 24.4 6 Sudeste 15 Sur 0 1016.3 -- 50
2020-11-02 13:00:00 22.6 5 Sur 9 Sur 0 1017 -- 54
2020-11-02 12:00:00 18.6 3 Nordeste 6 Nordeste 0 1017.9 -- 74
2020-11-02 11:00:00 14.5 2 Norte 6 Norte 0 1018.5 -- 92
2020-11-02 10:00:00 13.8 5 Norte 10 Norte 0 1018.8 -- 96
2020-11-02 09:00:00 12.5 4 Norte 7 Norte 0 1018.4 -- 97
2020-11-02 08:00:00 12 3 Norte 8 Nordeste 0 1018 -- 97
2020-11-02 07:00:00 11.8 3 Norte 14 Norte 0 1017.6 -- 99
2020-11-02 06:00:00 11.7 4 Norte 9 Norte 0 1017.5 -- 95
2020-11-02 05:00:00 11.9 6 Norte 10 Norte 0 1017.4 -- 95
2020-11-02 04:00:00 12.6 4 Norte 9 Norte 0 1017.3 -- 97
2020-11-02 03:00:00 12.8 5 Noroeste 6 Noroeste 0 1017.6 -- 97
2020-11-02 02:00:00 12.7 0 Calma 6 Noroeste 0 1017.8 -- 97
2020-11-02 01:00:00 13.2 2 Norte 5 Norte 0 1018 -- 95
2020-11-02 00:00:00 13.2 3 Sur 6 Norte 0 1018.2 -- 90
2020-11-01 23:00:00 14.4 3 Nordeste 7 Sur 0 1018.3 -- 92
2020-11-01 22:00:00 15.2 2 Sudeste 6 Sudoeste 0 1018.2 -- 88
2020-11-01 21:00:00 16.6 5 Oeste 9 Sudoeste 0 1017.8 -- 88
2020-11-01 20:00:00 17.5 7 Sudoeste 9 Sudoeste 0 1017.6 -- 82
2020-11-01 19:00:00 19.1 5 Sudoeste 9 Sudeste 0 1017.4 -- 73
2020-11-01 18:00:00 21.4 6 Sur 15 Sur 0 1016.8 -- 62
2020-11-01 17:00:00 25.1 9 Sur 17 Sur 0 1016.5 -- 41
2020-11-01 16:00:00 27.3 10 Sur 18 Sur 0 1016.7 -- 38
2020-11-01 15:00:00 27.8 9 Sudeste 18 Sur 0 1016.9 -- 38
2020-11-01 14:00:00 27.7 12 Sur 18 Sur 0 1017.2 -- 40
2020-11-01 13:00:00 26.8 8 Sur 15 Sur 0 1017.9 -- 39
2020-11-01 12:00:00 24.8 6 Sudeste 11 Sudeste 0 1018.6 -- 40
2020-11-01 11:00:00 21.5 4 Sur 9 Sur 0 1019.1 -- 50
2020-11-01 10:00:00 17.9 4 Norte 11 Norte 0 1019.5 -- 58
2020-11-01 09:00:00 13.5 4 Norte 15 Norte 0 1019.1 -- 70
2020-11-01 08:00:00 9.7 8 Norte 14 Norte 0 1018.9 -- 85
2020-11-01 07:00:00 9.3 4 Norte 11 Norte 0 1018.5 -- 87
2020-11-01 06:00:00 10.2 5 Noroeste 13 Norte 0 1018.6 -- 83
2020-11-01 05:00:00 10 6 Noroeste 9 Noroeste 0 1018.9 -- 87
2020-11-01 04:00:00 10.7 6 Noroeste 9 Noroeste 0 1019.1 -- 85
2020-11-01 03:00:00 11.5 3 Oeste 6 Sur 0 1019.3 -- 86
2020-11-01 02:00:00 12.1 4 Noroeste 8 Noroeste 0 1019.3 -- 81
2020-11-01 01:00:00 12.2 3 Sudeste 7 Sur 0 1019.1 -- 87
2020-11-01 00:00:00 12.5 4 Sudeste 9 Noroeste 0 1018.7 -- 85
2020-10-31 23:00:00 13.3 4 Norte 9 Norte 0 1018.7 -- 79
2020-10-31 22:00:00 14.6 2 Este 6 Este 0 1018.5 -- 80
2020-10-31 21:00:00 16 3 Norte 5 Norte 0 1018.3 -- 76
2020-10-31 20:00:00 17.4 3 Este 6 Este 0 1018.3 -- 76
2020-10-31 19:00:00 18.8 4 Sudeste 9 Sur 0 1018.1 -- 74
2020-10-31 18:00:00 20.5 6 Sur 13 Sur 0 1017.5 -- 66
2020-10-31 17:00:00 23.5 9 Sur 15 Sur 0 1017.3 -- 53
2020-10-31 16:00:00 25.2 9 Sur 20 Sur 0 1017.2 -- 46
2020-10-31 15:00:00 26.3 10 Sudeste 18 Sur 0 1017.2 -- 43
2020-10-31 14:00:00 26.7 6 Sudeste 12 Sur 0 1018 -- 34
2020-10-31 13:00:00 25.4 4 Nordeste 13 Este 0 1018.9 -- 33
2020-10-31 12:00:00 24 6 Nordeste 17 Norte 0 1019.7 -- 38
2020-10-31 11:00:00 20.9 8 Norte 21 Noroeste 0 1020.2 -- 47
2020-10-31 10:00:00 17.2 2 Este 6 Sudeste 0 1020.5 -- 63
2020-10-31 09:00:00 13.4 2 Nordeste 8 Norte 0 1020.3 -- 76
2020-10-31 08:00:00 9.9 5 Norte 11 Norte 0 1020 -- 92
2020-10-31 07:00:00 9.5 5 Norte 10 Norte 0 1019.6 -- 92
2020-10-31 06:00:00 9.6 5 Norte 12 Norte 0 1019.6 -- 91
2020-10-31 05:00:00 9.8 4 Norte 7 Norte 0 1019.6 -- 91
2020-10-31 04:00:00 10.2 4 Norte 9 Noroeste 0 1019.5 -- 89
2020-10-31 03:00:00 10.9 3 Norte 8 Norte 0 1019.7 -- 89
2020-10-31 02:00:00 11.5 3 Norte 6 Nordeste 0 1020.1 -- 87
2020-10-31 01:00:00 11.8 3 Noroeste 9 Noroeste 0 1020.1 -- 86
2020-10-31 00:00:00 12.4 4 Norte 12 Norte 0 1020.5 -- 85
2020-10-30 23:00:00 13.2 3 Noroeste 8 Norte 0 1020.6 -- 84
2020-10-30 22:00:00 14 6 Norte 10 Norte 0 1020.5 -- 79
2020-10-30 21:00:00 15.9 5 Noroeste 7 Noroeste 0 1020.2 -- 78
2020-10-30 20:00:00 16.8 4 Este 9 Sudeste 0 1020 -- 77
2020-10-30 19:00:00 18.1 4 Sudeste 12 Sudeste 0 1019.8 -- 67
2020-10-30 18:00:00 19.8 9 Sur 16 Sudeste 0 1019.4 -- 56
2020-10-30 17:00:00 22.9 9 Sur 19 Sur 0 1019.2 -- 47
2020-10-30 16:00:00 24.8 10 Sur 19 Sudeste 0 1019.3 -- 45
2020-10-30 15:00:00 25.6 9 Sur 17 Sudeste 0 1019.3 -- 44
2020-10-30 14:00:00 25.4 7 Sudeste 15 Este 0 1019.6 -- 43
2020-10-30 13:00:00 25.2 7 Sudeste 15 Este 0 1020.3 -- 42
2020-10-30 12:00:00 24 5 Norte 20 Noroeste 0 1021 -- 42
2020-10-30 11:00:00 21.5 9 Norte 21 Norte 0 1021.4 -- 49
2020-10-30 10:00:00 18.3 3 Nordeste 9 Norte 0 1021.7 -- 64
2020-10-30 09:00:00 14 0 Calma 9 Norte 0 1021.6 -- 78
2020-10-30 08:00:00 10.4 4 Norte 12 Norte 0 1021.2 -- 94
2020-10-30 07:00:00 10.2 6 Norte 11 Norte 0 1020.8 -- 93
2020-10-30 06:00:00 10.2 6 Norte 12 Norte 0 1021 -- 94
2020-10-30 05:00:00 10.2 5 Norte 15 Noroeste 0 1021 -- 93
2020-10-30 04:00:00 10.7 5 Norte 10 Noroeste 0 1021.1 -- 92
2020-10-30 03:00:00 10.9 6 Noroeste 12 Noroeste 0 1021.1 -- 92
2020-10-30 02:00:00 11.2 3 Norte 5 Noroeste 0 1021.6 -- 91
2020-10-30 01:00:00 11.7 4 Norte 6 Noroeste 0 1021.8 -- 88
2020-10-30 00:00:00 12.8 3 Nordeste 8 Norte 0 1021.6 -- 84
2020-10-29 23:00:00 13.5 6 Noroeste 8 Noroeste 0 1021.6 -- 83
2020-10-29 22:00:00 14.4 0 Calma 10 Norte 0 1021.7 -- 78
2020-10-29 21:00:00 15.3 5 Norte 9 Norte 0 1021.3 -- 73
2020-10-29 20:00:00 16.7 3 Sudoeste 6 Sur 0 1021.3 -- 69
2020-10-29 19:00:00 17.7 5 Sur 16 Sudeste 0 1021 -- 64
2020-10-29 18:00:00 19.3 8 Sudeste 18 Sudeste 0 1020.3 -- 58
2020-10-29 17:00:00 22 9 Sudeste 17 Sudeste 0 1020 -- 52
2020-10-29 16:00:00 23.7 11 Sudeste 19 Sudeste 0 1019.8 -- 49
2020-10-29 15:00:00 24.6 9 Sudeste 21 Sudeste 0 1019.9 -- 46
2020-10-29 14:00:00 25.5 11 Sur 21 Sudeste 0 1020.3 -- 44
2020-10-29 13:00:00 24.7 11 Sudeste 21 Sudeste 0 1021.3 -- 44
2020-10-29 12:00:00 24.7 4 Nordeste 20 Nordeste 0 1021.7 -- 40
2020-10-29 11:00:00 23.3 7 Norte 16 Nordeste 0 1021.8 -- 44
2020-10-29 10:00:00 21.1 9 Norte 22 Norte 0 1021.4 -- 51
2020-10-29 09:00:00 17.5 9 Norte 19 Norte 0 1021.6 -- 64
2020-10-29 08:00:00 14.6 10 Norte 24 Norte 0 1020.9 -- 73
2020-10-29 07:00:00 13.5 12 Norte 23 Norte 0 1020.5 -- 77
2020-10-29 06:00:00 13.4 8 Norte 21 Norte 0 1020.1 -- 77
2020-10-29 05:00:00 12.7 10 Norte 18 Noroeste 0 1019.8 -- 81
2020-10-29 04:00:00 11.5 5 Noroeste 12 Noroeste 0 1019.5 -- 85
2020-10-29 03:00:00 11.6 2 Noroeste 15 Norte 0 1019.5 -- 82
2020-10-29 02:00:00 11.4 8 Norte 13 Norte 0 1019.3 -- 85
2020-10-29 01:00:00 11.7 3 Noroeste 12 Noroeste 0 1018.9 -- 82
2020-10-29 00:00:00 12.5 6 Norte 11 Noroeste 0 1018.4 -- 80
2020-10-28 23:00:00 13.2 4 Norte 7 Norte 0 1018.4 -- 76
2020-10-28 22:00:00 14.2 4 Norte 6 Norte 0 1018.2 -- 73
2020-10-28 21:00:00 15 4 Norte 9 Noroeste 0 1017.8 -- 70
2020-10-28 20:00:00 16.5 2 Sudeste 10 Sudeste 0 1017.1 -- 66
2020-10-28 19:00:00 17.8 5 Sudeste 10 Sudeste 0 1016.9 -- 63
2020-10-28 18:00:00 19.9 6 Sudeste 14 Sur 0 1015.7 -- 55
2020-10-28 17:00:00 22.3 6 Sur 19 Sur 0 1015.3 -- 43
2020-10-28 16:00:00 22.2 8 Sudeste 15 Sudeste 0 1015.1 -- 46
2020-10-28 15:00:00 23.4 6 Sudeste 15 Sudeste 0 1014.9 -- 43
2020-10-28 14:00:00 24.6 5 Sudeste 11 Sudoeste 0 1015 -- 37
2020-10-28 13:00:00 24 6 Sur 12 Sur 0 1015.6 -- 37
2020-10-28 12:00:00 23 5 Este 10 Este 0 1016.1 -- 36
2020-10-28 11:00:00 19.2 2 Sur 6 Este 0 1016.2 -- 49
2020-10-28 10:00:00 16.5 3 Sudeste 7 Sudeste 0 1016 -- 57
2020-10-28 09:00:00 14.4 3 Noroeste 7 Sur 0 1015.7 -- 60
2020-10-28 08:00:00 10.7 5 Norte 13 Noroeste 0 1015.1 -- 71
2020-10-28 07:00:00 10.4 4 Sudeste 9 Nordeste 0 1014.3 -- 71
2020-10-28 06:00:00 11.1 5 Oeste 17 Noroeste 0 1013.6 -- 68
2020-10-28 05:00:00 11.1 4 Este 9 Este 0 1013.2 -- 70
2020-10-28 04:00:00 11.4 3 Sur 8 Sudeste 0 1013 -- 67
2020-10-28 03:00:00 11.3 6 Sur 9 Sudoeste 0 1013.1 -- 68
2020-10-28 02:00:00 11.9 4 Sudoeste 15 Sudoeste 0 1013 -- 64
2020-10-28 01:00:00 12 3 Nordeste 11 Oeste 0 1013.1 -- 63
2020-10-28 00:00:00 12 6 Oeste 14 Norte 0 1013.4 -- 62